X  Schlie├čen METAR Luftfahrt Wetterdaten     KDNN Dalton Municipal Airport
Temperatur
14°C Temperatur
7°C Taupunkt
63% Feuchtigkeit



Wind
3 MPS
5 KM/S
1 M/S
3 KTS



160°
SSO
Aktuelle Wetterlage

Klar Klar
Luftdruck 1019.3 (hPa) - 30.1 (inHg)
Sichtweite 10 (Meile) - 16.1 (Km)
Flughafen
Flughafen Code KDNN

Position : Dalton Municipal Airport
Entfernung: 34 (mi)

Metar:
KDNN 082235Z AUTO 16003KT 10SM CLR 13/07 A3010 RMK AO2 T01350071

Zeit: 12-08-2023 17:35 EST